createdAt,value
2022-08-14T00:02:03.162Z,94317.94
2022-08-14T00:04:42.078Z,94322.84
2022-08-14T00:07:14.005Z,94310.53
2022-08-14T00:09:55.741Z,94309.66
2022-08-14T00:12:33.447Z,94306.22
2022-08-14T00:15:20.169Z,94308.25
2022-08-14T00:17:53.297Z,94298.31
2022-08-14T00:20:30.846Z,94283.81
2022-08-14T00:23:12.300Z,94280.09
2022-08-14T00:25:53.794Z,94280.66
2022-08-14T00:28:35.161Z,94271.72
2022-08-14T00:31:04.762Z,94264.75
2022-08-14T00:33:50.595Z,94263.38
2022-08-14T00:36:36.152Z,94268.75
2022-08-14T00:39:06.634Z,94266.94
2022-08-14T00:41:36.197Z,94248.78
2022-08-14T00:44:06.544Z,94272.03
2022-08-14T00:46:33.735Z,94264.81
2022-08-14T00:49:02.151Z,94267.47
2022-08-14T00:51:34.826Z,94269.16
2022-08-14T00:54:16.691Z,94269.84
2022-08-14T00:56:49.204Z,94264.03
2022-08-14T00:59:16.193Z,94248.97
2022-08-14T01:01:44.902Z,94257.84
2022-08-14T01:04:51.770Z,94254.84
2022-08-14T01:07:00.940Z,94255.94
2022-08-14T01:09:39.115Z,94247.00
2022-08-14T01:12:07.823Z,94235.94
2022-08-14T01:14:35.634Z,94242.69
2022-08-14T01:17:03.701Z,94234.94
2022-08-14T01:19:49.597Z,94244.69
2022-08-14T01:22:19.111Z,94245.16
2022-08-14T01:24:47.669Z,94252.19
2022-08-14T01:27:24.254Z,94264.78
2022-08-14T01:30:01.001Z,94256.28
2022-08-14T01:32:37.357Z,94255.34
2022-08-14T01:35:18.333Z,94262.34
2022-08-14T01:37:54.859Z,94255.94
2022-08-14T01:40:25.382Z,94261.25
2022-08-14T01:42:58.649Z,94258.91
2022-08-14T01:45:25.843Z,94254.09
2022-08-14T01:48:03.320Z,94235.16
2022-08-14T01:50:33.699Z,94232.88
2022-08-14T01:53:01.483Z,94241.22
2022-08-14T01:55:31.428Z,94243.06
2022-08-14T01:58:01.523Z,94240.22
2022-08-14T02:00:47.888Z,94241.44
2022-08-14T02:03:16.250Z,94230.84
2022-08-14T02:05:43.848Z,94235.72
2022-08-14T02:08:10.919Z,94221.97
2022-08-14T02:10:46.393Z,94214.69
2022-08-14T02:13:14.038Z,94210.25
2022-08-14T02:15:44.188Z,94201.34
2022-08-14T02:18:11.884Z,94196.25
2022-08-14T02:20:42.574Z,94195.66
2022-08-14T02:23:09.508Z,94186.22
2022-08-14T02:25:39.498Z,94168.91
2022-08-14T02:28:22.971Z,94182.72
2022-08-14T02:30:54.491Z,94190.25
2022-08-14T02:33:22.747Z,94178.06
2022-08-14T02:35:53.366Z,94182.59
2022-08-14T02:38:34.986Z,94172.31
2022-08-14T02:41:09.030Z,94183.53
2022-08-14T02:43:46.508Z,94177.94
2022-08-14T02:46:20.371Z,94179.31
2022-08-14T02:49:04.363Z,94167.19
2022-08-14T02:51:34.812Z,94172.13
2022-08-14T02:54:05.776Z,94172.91
2022-08-14T02:57:13.908Z,94156.47
2022-08-14T02:59:21.093Z,94161.47
2022-08-14T03:01:50.939Z,94143.38
2022-08-14T03:04:22.132Z,94159.13
2022-08-14T03:07:06.204Z,94152.25
2022-08-14T03:09:41.960Z,94161.97
2022-08-14T03:12:30.939Z,94156.91
2022-08-14T03:15:14.360Z,94146.69
2022-08-14T03:17:56.438Z,94147.75
2022-08-14T03:20:28.823Z,94140.72
2022-08-14T03:23:00.215Z,94122.13
2022-08-14T03:25:27.305Z,94124.84
2022-08-14T03:27:58.779Z,94122.34
2022-08-14T03:30:38.985Z,94118.25
2022-08-14T03:33:11.965Z,94117.13
2022-08-14T03:36:05.190Z,94110.16
2022-08-14T03:39:14.168Z,94100.00
2022-08-14T03:41:24.818Z,94115.56
2022-08-14T03:44:01.316Z,94105.41
2022-08-14T03:46:38.966Z,94119.72
2022-08-14T03:49:29.384Z,94118.50
2022-08-14T03:52:00.914Z,94117.69
2022-08-14T03:54:29.593Z,94104.75
2022-08-14T03:57:02.774Z,94101.50
2022-08-14T03:59:32.321Z,94111.97
2022-08-14T04:02:01.668Z,94104.25
2022-08-14T04:04:31.363Z,94101.88
2022-08-14T04:07:00.163Z,94090.78
2022-08-14T04:09:27.878Z,94102.50
2022-08-14T04:11:56.136Z,94097.75
2022-08-14T04:14:25.153Z,94088.84
2022-08-14T04:16:51.953Z,94079.63
2022-08-14T04:19:20.634Z,94101.81
2022-08-14T04:22:01.737Z,94095.03
2022-08-14T04:24:38.996Z,94117.94
2022-08-14T04:27:13.466Z,94110.38
2022-08-14T04:29:45.181Z,94117.50
2022-08-14T04:33:01.663Z,94117.97
2022-08-14T04:35:01.155Z,94110.63
2022-08-14T04:37:57.833Z,94116.84
2022-08-14T04:40:43.203Z,94122.03
2022-08-14T04:43:38.561Z,94117.81
2022-08-14T04:46:56.043Z,94118.97
2022-08-14T04:49:07.995Z,94124.50
2022-08-14T04:51:46.949Z,94127.66
2022-08-14T04:54:22.448Z,94118.22
2022-08-14T04:56:51.375Z,94114.63
2022-08-14T04:59:22.253Z,94120.41
2022-08-14T05:01:52.876Z,94113.31
2022-08-14T05:04:23.023Z,94114.03
2022-08-14T05:06:55.277Z,94093.31
2022-08-14T05:09:29.327Z,94089.38
2022-08-14T05:13:11.918Z,94083.41
2022-08-14T05:14:55.257Z,94075.66
2022-08-14T05:17:31.839Z,94074.53
2022-08-14T05:21:04.282Z,94078.50
2022-08-14T05:22:59.878Z,94095.25
2022-08-14T05:25:31.004Z,94097.75
2022-08-14T05:28:20.654Z,94094.53
2022-08-14T05:30:51.074Z,94089.78
2022-08-14T05:33:21.028Z,94106.09
2022-08-14T05:35:49.171Z,94095.78
2022-08-14T05:38:22.222Z,94096.31
2022-08-14T05:40:57.748Z,94094.59
2022-08-14T05:43:24.649Z,94096.00
2022-08-14T05:46:12.167Z,94090.34
2022-08-14T05:48:43.353Z,94100.25
2022-08-14T05:51:10.505Z,94102.53
2022-08-14T05:53:37.340Z,94094.63
2022-08-14T05:56:09.348Z,94100.97
2022-08-14T05:58:41.423Z,94097.59
2022-08-14T06:01:09.631Z,94090.09
2022-08-14T06:03:37.196Z,94082.56
2022-08-14T06:06:07.880Z,94094.44
2022-08-14T06:08:40.971Z,94079.56
2022-08-14T06:11:14.853Z,94077.16
2022-08-14T06:13:50.747Z,94061.94
2022-08-14T06:16:18.988Z,94047.06
2022-08-14T06:18:51.778Z,94035.91
2022-08-14T06:21:21.975Z,94047.28
2022-08-14T06:23:49.685Z,94043.66
2022-08-14T06:26:20.595Z,94026.19
2022-08-14T06:28:51.708Z,94028.41
2022-08-14T06:31:20.976Z,94007.22
2022-08-14T06:35:04.467Z,94004.97
2022-08-14T06:36:36.755Z,94008.59
2022-08-14T06:39:03.934Z,94012.22
2022-08-14T06:41:56.619Z,94006.13
2022-08-14T06:44:22.154Z,93976.59
2022-08-14T06:46:57.756Z,93990.13
2022-08-14T06:49:27.311Z,93989.16
2022-08-14T06:51:57.441Z,93988.91
2022-08-14T06:54:31.345Z,93983.88
2022-08-14T06:56:58.715Z,93983.13
2022-08-14T06:59:25.513Z,93977.34
2022-08-14T07:02:13.144Z,93970.88
2022-08-14T07:04:59.564Z,93968.84
2022-08-14T07:07:28.744Z,93976.69
2022-08-14T07:09:55.904Z,93991.13
2022-08-14T07:12:54.663Z,93987.44
2022-08-14T07:15:11.046Z,93985.63
2022-08-14T07:17:52.223Z,93988.03
2022-08-14T07:20:31.427Z,93986.50
2022-08-14T07:23:08.070Z,93978.97
2022-08-14T07:25:39.046Z,93983.47
2022-08-14T07:28:20.901Z,93980.66
2022-08-14T07:30:50.661Z,93988.25
2022-08-14T07:33:20.773Z,93978.81
2022-08-14T07:35:58.013Z,93993.88
2022-08-14T07:38:34.047Z,93976.31
2022-08-14T07:41:06.986Z,93988.03
2022-08-14T07:43:42.013Z,93986.88
2022-08-14T07:46:09.700Z,94008.75
2022-08-14T07:48:41.236Z,93987.22
2022-08-14T07:51:11.227Z,93988.84
2022-08-14T07:53:40.841Z,94003.22
2022-08-14T07:56:43.866Z,93997.72
2022-08-14T07:58:58.794Z,94010.97
2022-08-14T08:01:29.952Z,93991.13
2022-08-14T08:04:01.410Z,93990.56
2022-08-14T08:06:30.766Z,93989.03
2022-08-14T08:09:03.004Z,93996.13
2022-08-14T08:11:37.427Z,93992.91
2022-08-14T08:14:16.266Z,93988.16
2022-08-14T08:16:47.534Z,93988.97
2022-08-14T08:19:19.424Z,93977.06
2022-08-14T08:21:47.635Z,93988.28
2022-08-14T08:24:19.796Z,93977.53
2022-08-14T08:26:50.367Z,93970.66
2022-08-14T08:29:28.642Z,93982.47
2022-08-14T08:32:01.771Z,93984.09
2022-08-14T08:34:46.558Z,93983.81
2022-08-14T08:37:15.187Z,93996.53
2022-08-14T08:40:02.314Z,93988.47
2022-08-14T08:42:31.135Z,93986.84
2022-08-14T08:44:58.686Z,93986.28
2022-08-14T08:47:25.464Z,93983.31
2022-08-14T08:50:00.046Z,93990.31
2022-08-14T08:52:31.828Z,93981.91
2022-08-14T08:55:13.505Z,93990.25
2022-08-14T08:57:40.285Z,93989.19
2022-08-14T09:00:25.270Z,93992.09
2022-08-14T09:03:29.873Z,93987.75
2022-08-14T09:06:04.069Z,93985.63
2022-08-14T09:08:50.821Z,93974.34
2022-08-14T09:11:19.719Z,93979.78
2022-08-14T09:13:51.665Z,93978.66
2022-08-14T09:16:24.901Z,93954.59
2022-08-14T09:18:53.118Z,93934.88
2022-08-14T09:21:24.354Z,93928.44
2022-08-14T09:24:29.225Z,93925.59
2022-08-14T09:26:48.830Z,93931.50
2022-08-14T09:29:16.503Z,93931.63
2022-08-14T09:31:52.621Z,93947.75
2022-08-14T09:34:59.256Z,93942.59
2022-08-14T09:37:41.144Z,93939.25
2022-08-14T09:40:52.406Z,93935.84
2022-08-14T09:43:51.860Z,93918.06
2022-08-14T09:46:21.174Z,93928.22
2022-08-14T09:49:02.754Z,93936.31
2022-08-14T09:51:32.907Z,93937.25
2022-08-14T09:54:22.544Z,93938.97
2022-08-14T09:56:56.763Z,93934.47
2022-08-14T09:59:28.205Z,93929.91
2022-08-14T10:01:59.691Z,93917.06
2022-08-14T10:04:34.257Z,93928.47
2022-08-14T10:07:06.345Z,93929.31
2022-08-14T10:09:59.455Z,93910.50
2022-08-14T10:12:53.160Z,93900.78
2022-08-14T10:15:29.989Z,93904.94
2022-08-14T10:18:17.645Z,93908.69
2022-08-14T10:21:01.711Z,93906.66
2022-08-14T10:23:38.961Z,93900.84
2022-08-14T10:26:09.098Z,93905.34
2022-08-14T10:29:18.984Z,93906.47
2022-08-14T10:31:40.325Z,93899.59
2022-08-14T10:34:19.010Z,93905.28
2022-08-14T10:36:49.805Z,93899.50
2022-08-14T10:39:23.642Z,93881.94
2022-08-14T10:42:16.531Z,93871.69
2022-08-14T10:44:49.174Z,93872.03
2022-08-14T10:47:40.472Z,93882.44
2022-08-14T10:50:12.138Z,93886.78
2022-08-14T10:52:43.510Z,93891.56
2022-08-14T10:55:14.776Z,93889.34
2022-08-14T10:57:57.594Z,93881.03
2022-08-14T11:00:30.228Z,93885.44
2022-08-14T11:03:11.025Z,93888.03
2022-08-14T11:05:46.142Z,93888.56
2022-08-14T11:08:15.556Z,93889.34
2022-08-14T11:10:58.707Z,93887.56
2022-08-14T11:13:30.737Z,93891.06
2022-08-14T11:16:02.359Z,93878.94
2022-08-14T11:18:40.205Z,93887.09
2022-08-14T11:21:09.435Z,93889.91
2022-08-14T11:23:39.886Z,93896.97
2022-08-14T11:26:13.319Z,93888.03
2022-08-14T11:28:47.522Z,93885.53
2022-08-14T11:31:22.157Z,93883.25
2022-08-14T11:33:56.930Z,93874.84
2022-08-14T11:37:02.012Z,93867.06
2022-08-14T11:39:34.299Z,93873.78
2022-08-14T11:42:57.999Z,93881.78
2022-08-14T11:45:00.934Z,93864.47
2022-08-14T11:47:35.402Z,93857.72
2022-08-14T11:50:25.007Z,93867.09
2022-08-14T11:53:04.285Z,93855.00
2022-08-14T11:55:39.568Z,93863.59
2022-08-14T11:58:10.643Z,93848.91
2022-08-14T12:00:55.016Z,93837.03
2022-08-14T12:03:37.711Z,93842.94
2022-08-14T12:06:29.577Z,93838.63
2022-08-14T12:09:08.711Z,93830.78
2022-08-14T12:11:47.519Z,93830.81
2022-08-14T12:14:30.669Z,93832.22
2022-08-14T12:17:11.928Z,93831.13
2022-08-14T12:19:57.085Z,93818.16
2022-08-14T12:22:37.375Z,93817.66
2022-08-14T12:25:14.852Z,93814.00
2022-08-14T12:27:53.242Z,93812.22
2022-08-14T12:30:42.466Z,93798.63
2022-08-14T12:33:34.033Z,93808.69
2022-08-14T12:36:10.085Z,93803.91
2022-08-14T12:38:43.920Z,93820.97
2022-08-14T12:41:22.006Z,93814.75
2022-08-14T12:44:03.345Z,93795.66
2022-08-14T12:46:43.703Z,93807.59
2022-08-14T12:49:17.839Z,93797.31
2022-08-14T12:51:57.795Z,93803.84
2022-08-14T12:54:28.257Z,93792.22
2022-08-14T12:57:19.417Z,93794.97
2022-08-14T12:59:47.638Z,93788.31
2022-08-14T13:02:28.654Z,93793.03
2022-08-14T13:04:56.780Z,93780.19
2022-08-14T13:07:32.512Z,93771.88
2022-08-14T13:10:00.471Z,93784.22
2022-08-14T13:13:12.055Z,93775.44
2022-08-14T13:15:40.170Z,93769.94
2022-08-14T13:18:11.410Z,93771.22
2022-08-14T13:20:44.144Z,93767.41
2022-08-14T13:23:24.578Z,93767.47
2022-08-14T13:26:00.076Z,93765.28
2022-08-14T13:28:32.996Z,93745.19
2022-08-14T13:31:08.942Z,93756.22
2022-08-14T13:33:40.694Z,93747.72
2022-08-14T13:36:09.756Z,93747.69
2022-08-14T13:38:37.191Z,93743.03
2022-08-14T13:41:06.321Z,93737.75
2022-08-14T13:43:36.734Z,93745.22
2022-08-14T13:46:04.062Z,93734.03
2022-08-14T13:48:33.341Z,93730.69
2022-08-14T13:51:10.891Z,93732.97
2022-08-14T13:54:06.921Z,93734.22
2022-08-14T13:56:39.857Z,93729.09
2022-08-14T13:59:08.146Z,93731.69
2022-08-14T14:01:43.277Z,93734.09
2022-08-14T14:04:19.156Z,93718.22
2022-08-14T14:06:49.691Z,93715.63
2022-08-14T14:09:32.450Z,93711.50
2022-08-14T14:12:08.119Z,93710.75
2022-08-14T14:14:56.300Z,93713.91
2022-08-14T14:17:25.046Z,93714.06
2022-08-14T14:19:56.589Z,93720.38
2022-08-14T14:22:35.601Z,93713.00
2022-08-14T14:25:14.454Z,93713.47
2022-08-14T14:27:48.945Z,93718.25
2022-08-14T14:30:46.505Z,93707.09
2022-08-14T14:33:44.117Z,93707.91
2022-08-14T14:36:01.722Z,93687.59
2022-08-14T14:38:33.657Z,93699.09
2022-08-14T14:41:03.834Z,93693.84
2022-08-14T14:43:36.131Z,93694.78
2022-08-14T14:46:09.433Z,93694.59
2022-08-14T14:48:46.726Z,93692.94
2022-08-14T14:51:22.299Z,93704.66
2022-08-14T14:53:49.308Z,93694.59
2022-08-14T14:56:47.601Z,93699.09
2022-08-14T14:59:11.989Z,93694.97
2022-08-14T15:01:40.603Z,93685.19
2022-08-14T15:04:19.844Z,93686.34
2022-08-14T15:06:48.909Z,93696.22
2022-08-14T15:09:17.871Z,93693.69
2022-08-14T15:11:46.903Z,93700.63
2022-08-14T15:14:55.245Z,93705.13
2022-08-14T15:17:02.211Z,93698.31
2022-08-14T15:19:29.180Z,93708.38
2022-08-14T15:21:57.697Z,93702.47
2022-08-14T15:24:26.979Z,93706.13
2022-08-14T15:26:58.663Z,93708.97
2022-08-14T15:29:26.300Z,93704.69
2022-08-14T15:31:53.923Z,93704.19
2022-08-14T15:34:43.571Z,93699.25
2022-08-14T15:37:11.023Z,93705.22
2022-08-14T15:39:41.390Z,93716.44
2022-08-14T15:42:16.345Z,93707.09
2022-08-14T15:44:58.372Z,93710.34
2022-08-14T15:47:32.166Z,93704.63
2022-08-14T15:50:03.092Z,93713.78
2022-08-14T15:52:43.102Z,93714.38
2022-08-14T15:55:15.459Z,93699.03
2022-08-14T15:58:02.323Z,93689.22
2022-08-14T16:00:53.580Z,93696.25
2022-08-14T16:03:27.832Z,93703.34
2022-08-14T16:06:15.527Z,93710.31
2022-08-14T16:08:57.688Z,93699.97
2022-08-14T16:11:27.088Z,93699.69
2022-08-14T16:13:57.616Z,93694.97
2022-08-14T16:16:47.138Z,93691.22
2022-08-14T16:19:19.786Z,93689.78
2022-08-14T16:22:02.193Z,93692.72
2022-08-14T16:24:57.816Z,93684.44
2022-08-14T16:27:38.744Z,93684.19
2022-08-14T16:30:24.571Z,93688.88
2022-08-14T16:32:59.405Z,93677.25
2022-08-14T16:35:42.829Z,93672.72
2022-08-14T16:38:45.736Z,93677.22
2022-08-14T16:41:27.257Z,93673.34
2022-08-14T16:44:02.558Z,93671.19
2022-08-14T16:46:38.319Z,93674.00
2022-08-14T16:49:13.993Z,93674.03
2022-08-14T16:51:42.644Z,93659.84
2022-08-14T16:54:34.279Z,93657.28
2022-08-14T16:57:28.196Z,93658.25
2022-08-14T17:00:00.458Z,93643.38
2022-08-14T17:02:42.907Z,93663.78
2022-08-14T17:05:29.054Z,93658.31
2022-08-14T17:08:07.350Z,93662.13
2022-08-14T17:10:52.153Z,93664.66
2022-08-14T17:13:59.983Z,93665.16
2022-08-14T17:16:25.465Z,93670.38
2022-08-14T17:19:00.633Z,93675.91
2022-08-14T17:21:40.982Z,93661.56
2022-08-14T17:24:56.537Z,93671.06
2022-08-14T17:27:04.419Z,93666.97
2022-08-14T17:29:54.419Z,93677.88
2022-08-14T17:32:29.750Z,93680.16
2022-08-14T17:35:16.349Z,93669.16
2022-08-14T17:37:55.829Z,93675.34
2022-08-14T17:40:25.839Z,93657.63
2022-08-14T17:43:02.247Z,93670.03
2022-08-14T17:45:41.067Z,93677.34
2022-08-14T17:49:10.651Z,93674.75
2022-08-14T17:51:24.083Z,93673.94
2022-08-14T17:54:01.523Z,93668.94
2022-08-14T17:56:31.809Z,93675.03
2022-08-14T17:59:06.330Z,93664.31
2022-08-14T18:01:45.880Z,93655.81
2022-08-14T18:04:25.188Z,93676.03
2022-08-14T18:07:16.101Z,93669.47
2022-08-14T18:09:56.919Z,93665.44
2022-08-14T18:12:36.489Z,93658.81
2022-08-14T18:15:14.765Z,93665.06
2022-08-14T18:17:53.228Z,93667.97
2022-08-14T18:21:40.420Z,93664.63
2022-08-14T18:23:13.322Z,93664.00
2022-08-14T18:25:48.946Z,93670.13
2022-08-14T18:28:18.315Z,93673.72
2022-08-14T18:31:22.800Z,93680.06
2022-08-14T18:34:11.876Z,93681.00
2022-08-14T18:36:54.363Z,93689.78
2022-08-14T18:40:01.643Z,93682.00
2022-08-14T18:42:23.364Z,93678.84
2022-08-14T18:44:50.817Z,93684.66
2022-08-14T18:47:17.600Z,93692.03
2022-08-14T18:49:53.335Z,93691.41
2022-08-14T18:52:38.979Z,93682.94
2022-08-14T18:55:21.232Z,93698.34
2022-08-14T18:58:28.194Z,93698.38
2022-08-14T19:00:58.967Z,93708.38
2022-08-14T19:03:36.396Z,93703.41
2022-08-14T19:06:09.921Z,93711.28
2022-08-14T19:08:48.059Z,93718.28
2022-08-14T19:11:34.389Z,93708.66
2022-08-14T19:14:04.633Z,93697.75
2022-08-14T19:16:35.595Z,93711.78
2022-08-14T19:19:07.090Z,93717.97
2022-08-14T19:21:56.439Z,93718.13
2022-08-14T19:24:43.559Z,93725.41
2022-08-14T19:27:26.168Z,93725.44
2022-08-14T19:30:20.338Z,93732.75
2022-08-14T19:32:53.090Z,93728.28
2022-08-14T19:35:48.676Z,93734.13
2022-08-14T19:38:59.280Z,93736.03
2022-08-14T19:41:30.128Z,93734.78
2022-08-14T19:44:15.391Z,93717.63
2022-08-14T19:47:01.307Z,93744.44
2022-08-14T19:50:24.535Z,93728.03
2022-08-14T19:52:37.065Z,93730.44
2022-08-14T19:55:20.351Z,93739.63
2022-08-14T19:57:58.636Z,93735.84
2022-08-14T20:00:29.272Z,93738.84
2022-08-14T20:03:10.884Z,93737.31
2022-08-14T20:05:45.665Z,93751.22
2022-08-14T20:11:02.421Z,93741.84
2022-08-14T20:11:15.810Z,93749.84
2022-08-14T20:13:46.932Z,93753.06
2022-08-14T20:16:21.158Z,93747.75
2022-08-14T20:19:17.103Z,93754.16
2022-08-14T20:21:58.331Z,93742.69
2022-08-14T20:24:45.216Z,93745.31
2022-08-14T20:27:24.824Z,93750.47
2022-08-14T20:30:29.701Z,93741.41
2022-08-14T20:33:07.466Z,93747.81
2022-08-14T20:35:39.889Z,93751.84
2022-08-14T20:38:30.392Z,93749.47
2022-08-14T20:41:09.670Z,93753.50
2022-08-14T20:44:02.703Z,93746.22
2022-08-14T20:46:38.942Z,93757.25
2022-08-14T20:49:16.762Z,93760.22
2022-08-14T20:51:54.702Z,93767.47
2022-08-14T20:54:34.391Z,93759.69
2022-08-14T20:57:08.245Z,93760.22
2022-08-14T20:59:53.207Z,93766.69
2022-08-14T21:02:38.707Z,93763.19
2022-08-14T21:05:19.339Z,93765.06
2022-08-14T21:07:51.275Z,93755.41
2022-08-14T21:10:43.930Z,93759.97
2022-08-14T21:14:08.542Z,93757.56
2022-08-14T21:16:04.102Z,93753.81
2022-08-14T21:18:35.078Z,93758.63
2022-08-14T21:21:20.616Z,93754.63
2022-08-14T21:23:54.255Z,93768.81
2022-08-14T21:26:50.860Z,93759.72
2022-08-14T21:29:14.518Z,93768.03
2022-08-14T21:31:42.628Z,93758.66
2022-08-14T21:34:31.065Z,93768.78
2022-08-14T21:37:07.846Z,93752.69
2022-08-14T21:39:36.823Z,93763.69
2022-08-14T21:42:06.008Z,93754.03
2022-08-14T21:44:42.660Z,93765.03
2022-08-14T21:47:12.737Z,93758.59
2022-08-14T21:49:43.153Z,93763.44
2022-08-14T21:52:49.832Z,93768.78
2022-08-14T21:55:13.648Z,93773.34
2022-08-14T21:58:45.761Z,93773.63
2022-08-14T22:00:42.043Z,93776.31
2022-08-14T22:03:17.557Z,93773.38
2022-08-14T22:05:52.216Z,93767.16
2022-08-14T22:08:22.543Z,93769.31
2022-08-14T22:10:55.201Z,93770.41
2022-08-14T22:13:26.664Z,93771.44
2022-08-14T22:15:59.735Z,93774.06
2022-08-14T22:18:29.704Z,93759.59
2022-08-14T22:20:57.315Z,93761.22
2022-08-14T22:23:25.685Z,93766.06
2022-08-14T22:25:53.686Z,93771.94
2022-08-14T22:28:32.745Z,93784.75
2022-08-14T22:31:10.325Z,93770.69
2022-08-14T22:33:38.640Z,93777.41
2022-08-14T22:36:25.899Z,93779.34
2022-08-14T22:38:54.561Z,93780.94
2022-08-14T22:41:26.713Z,93764.00
2022-08-14T22:44:12.709Z,93781.97
2022-08-14T22:46:43.310Z,93773.13
2022-08-14T22:49:15.542Z,93769.91
2022-08-14T22:51:59.582Z,93777.69
2022-08-14T22:54:53.144Z,93776.06
2022-08-14T22:57:14.912Z,93776.03
2022-08-14T22:59:41.884Z,93777.59
2022-08-14T23:02:16.413Z,93774.13
2022-08-14T23:04:53.749Z,93767.97
2022-08-14T23:07:26.053Z,93774.91
2022-08-14T23:10:32.941Z,93772.75
2022-08-14T23:13:00.423Z,93770.56
2022-08-14T23:15:28.731Z,93758.69
2022-08-14T23:17:56.908Z,93773.94
2022-08-14T23:20:29.084Z,93765.41
2022-08-14T23:22:57.871Z,93773.22
2022-08-14T23:25:57.414Z,93773.16
2022-08-14T23:28:34.281Z,93759.78
2022-08-14T23:31:14.076Z,93768.38
2022-08-14T23:33:46.053Z,93757.63
2022-08-14T23:36:32.358Z,93775.78
2022-08-14T23:39:07.156Z,93784.84
2022-08-14T23:41:46.970Z,93794.34
2022-08-14T23:44:23.542Z,93802.47
2022-08-14T23:46:57.155Z,93791.63
2022-08-14T23:49:56.923Z,93780.06
2022-08-14T23:52:56.317Z,93770.72
2022-08-14T23:55:11.388Z,93774.16
2022-08-14T23:57:43.978Z,93767.94
